Time;durP1;ratioP1;P1;durP2;ratioP2;P2;SDS_P1;SDS_P2;PMS_P1;PMS_P2;Temp;Humidity;BMP_temperature;BMP_pressure;BME280_temperature;BME280_humidity;BME280_pressure;Samples;Min_cycle;Max_cycle;Signal;HPM_P1;HPM_P2
2024/01/25 00:00:20;;;;;;;8.05;3.10;;;;;;;5.86;100.00;95100.72;5028279;28;20111;-65
2024/01/25 00:02:47;;;;;;;8.43;3.10;;;;;;;6.00;100.00;95114.69;5027024;28;20414;-65
2024/01/25 00:05:14;;;;;;;6.05;2.30;;;;;;;5.97;100.00;95103.69;5028268;28;20052;-64
2024/01/25 00:07:45;;;;;;;9.25;2.80;;;;;;;6.09;100.00;95106.28;5028091;28;20049;-64
2024/01/25 00:10:13;;;;;;;8.63;3.70;;;;;;;6.15;100.00;95107.59;5028110;28;20045;-63
2024/01/25 00:12:40;;;;;;;9.50;3.20;;;;;;;6.14;100.00;95103.28;5026519;28;20050;-64
2024/01/25 00:15:08;;;;;;;7.10;3.05;;;;;;;6.00;100.00;95106.50;5028031;28;20041;-64
2024/01/25 00:17:35;;;;;;;8.07;3.63;;;;;;;6.16;100.00;95105.66;5028015;28;20045;-64
2024/01/25 00:20:02;;;;;;;6.80;2.88;;;;;;;6.16;100.00;95102.94;5028495;28;20045;-64
2024/01/25 00:22:29;;;;;;;8.83;3.20;;;;;;;6.17;100.00;95099.84;5028562;28;20110;-65
2024/01/25 00:24:58;;;;;;;4.80;1.95;;;;;;;6.18;100.00;95100.66;5027844;28;20111;-64
2024/01/25 00:27:24;;;;;;;5.78;1.90;;;;;;;6.26;100.00;95110.56;5028542;28;20522;-64
2024/01/25 00:29:51;;;;;;;7.85;1.92;;;;;;;6.32;100.00;95108.34;5026867;28;20057;-63
2024/01/25 00:32:18;;;;;;;7.68;2.00;;;;;;;6.32;100.00;95111.06;5027977;28;20041;-63
2024/01/25 00:34:45;;;;;;;8.00;1.80;;;;;;;6.31;100.00;95112.97;5027814;28;20433;-65
2024/01/25 00:37:12;;;;;;;9.63;4.63;;;;;;;6.23;100.00;95111.25;5027949;28;20044;-64
2024/01/25 00:39:39;;;;;;;8.02;2.75;;;;;;;6.18;100.00;95114.28;5027809;28;20053;-64
2024/01/25 00:42:06;;;;;;;5.75;1.98;;;;;;;6.26;100.00;95107.00;5028360;28;20038;-64
2024/01/25 00:44:34;;;;;;;16.85;7.72;;;;;;;6.37;100.00;95114.25;5027898;28;20050;-64
2024/01/25 00:47:00;;;;;;;7.07;2.00;;;;;;;6.54;100.00;95102.16;5028382;28;20044;-63
2024/01/25 00:49:27;;;;;;;7.15;2.15;;;;;;;6.60;100.00;95116.28;5028166;28;20068;-64
2024/01/25 00:51:59;;;;;;;7.05;2.00;;;;;;;6.58;100.00;95111.19;5027756;28;20041;-65
2024/01/25 00:54:27;;;;;;;7.22;1.85;;;;;;;6.67;100.00;95105.50;5015294;28;20045;-64
2024/01/25 00:56:54;;;;;;;6.85;1.63;;;;;;;6.72;100.00;95104.41;5027716;28;20046;-65
2024/01/25 00:59:21;;;;;;;5.47;1.93;;;;;;;6.74;100.00;95097.47;5028073;28;20405;-64
2024/01/25 01:01:52;;;;;;;6.25;1.55;;;;;;;6.83;100.00;95105.41;5027375;28;20453;-64
2024/01/25 01:04:19;;;;;;;6.55;1.80;;;;;;;6.75;100.00;95106.41;5028118;28;20051;-64
2024/01/25 01:06:47;;;;;;;5.60;2.00;;;;;;;6.82;100.00;95103.03;5028912;28;20049;-64
2024/01/25 01:09:15;;;;;;;7.90;2.50;;;;;;;6.75;100.00;95109.94;5031617;28;20041;-63
2024/01/25 01:11:41;;;;;;;6.30;1.70;;;;;;;6.64;100.00;95105.41;5030263;28;20079;-65
2024/01/25 01:14:09;;;;;;;6.68;1.83;;;;;;;6.57;100.00;95095.97;5030445;28;20041;-65
2024/01/25 01:16:36;;;;;;;6.28;1.90;;;;;;;6.64;100.00;95103.50;5031339;28;20088;-64
2024/01/25 01:19:06;;;;;;;6.80;2.60;;;;;;;6.47;100.00;95096.53;5031803;28;20063;-65
2024/01/25 01:21:34;;;;;;;7.57;2.08;;;;;;;6.39;100.00;95098.34;5031635;28;20044;-64
2024/01/25 01:24:02;;;;;;;6.97;1.90;;;;;;;6.65;100.00;95087.91;5031817;28;20042;-65
2024/01/25 01:26:29;;;;;;;5.38;1.90;;;;;;;6.59;100.00;95090.94;5031286;28;20051;-65
2024/01/25 01:28:56;;;;;;;5.63;1.70;;;;;;;6.64;100.00;95094.50;5031278;28;20041;-64
2024/01/25 01:31:22;;;;;;;5.55;1.50;;;;;;;6.68;100.00;95095.38;5031389;28;20131;-64
2024/01/25 01:33:49;;;;;;;7.10;1.77;;;;;;;6.77;100.00;95088.53;5031032;28;20151;-64
2024/01/25 01:36:17;;;;;;;8.20;2.00;;;;;;;6.70;100.00;95093.88;5031202;28;20053;-64
2024/01/25 01:38:43;;;;;;;5.65;1.83;;;;;;;6.74;100.00;95093.91;5030728;28;20646;-65
2024/01/25 01:41:13;;;;;;;6.20;1.48;;;;;;;6.72;100.00;95093.50;5031341;28;20042;-64
2024/01/25 01:43:40;;;;;;;6.18;1.70;;;;;;;6.65;100.00;95096.88;5031017;28;20050;-65
2024/01/25 01:46:11;;;;;;;8.57;1.90;;;;;;;6.67;100.00;95093.81;5029779;28;20106;-67
2024/01/25 01:48:39;;;;;;;4.90;1.70;;;;;;;6.66;100.00;95098.47;5031003;28;20059;-64
2024/01/25 01:51:07;;;;;;;5.80;2.60;;;;;;;6.65;100.00;95098.81;5031027;28;20037;-64
2024/01/25 01:53:34;;;;;;;7.80;3.00;;;;;;;6.56;100.00;95088.94;5030940;28;20049;-64
2024/01/25 01:56:01;;;;;;;5.35;2.50;;;;;;;6.59;100.00;95087.41;5031216;28;20041;-64
2024/01/25 01:58:30;;;;;;;5.45;1.92;;;;;;;6.36;100.00;95084.66;5031163;28;20052;-64
2024/01/25 02:00:59;;;;;;;5.10;1.40;;;;;;;6.38;100.00;95085.88;5017673;28;20482;-64
2024/01/25 02:03:26;;;;;;;6.03;1.52;;;;;;;6.45;100.00;95079.75;5030578;28;20045;-65
2024/01/25 02:05:53;;;;;;;5.25;2.00;;;;;;;6.52;100.00;95084.53;5030866;28;20037;-64
2024/01/25 02:08:20;;;;;;;5.10;1.73;;;;;;;6.36;100.00;95079.97;5030368;28;20110;-64
2024/01/25 02:10:46;;;;;;;6.50;2.10;;;;;;;6.39;100.00;95086.66;5030276;28;20109;-65
2024/01/25 02:13:13;;;;;;;4.87;1.93;;;;;;;6.39;100.00;95087.44;5029309;28;20041;-64
2024/01/25 02:15:40;;;;;;;4.88;1.70;;;;;;;6.29;100.00;95082.56;5017095;28;20099;-65
2024/01/25 02:18:07;;;;;;;5.25;1.80;;;;;;;6.28;100.00;95083.72;5030483;28;20053;-66
2024/01/25 02:20:33;;;;;;;8.10;2.30;;;;;;;6.37;100.00;95078.81;5030320;28;20091;-64
2024/01/25 02:23:00;;;;;;;3.72;1.65;;;;;;;6.29;100.00;95073.59;5030469;28;20050;-65
2024/01/25 02:25:27;;;;;;;6.30;1.57;;;;;;;6.29;100.00;95076.31;5030071;28;20437;-64
2024/01/25 02:27:54;;;;;;;5.38;1.50;;;;;;;6.28;100.00;95086.44;5030376;28;20049;-64
2024/01/25 02:30:21;;;;;;;5.38;1.73;;;;;;;6.13;100.00;95074.44;5030121;28;20191;-64
2024/01/25 02:32:48;;;;;;;7.47;1.83;;;;;;;6.26;100.00;95085.22;5030131;28;20050;-64
2024/01/25 02:35:15;;;;;;;5.38;1.95;;;;;;;6.30;100.00;95075.16;5029611;28;21309;-64
2024/01/25 02:37:42;;;;;;;6.63;1.80;;;;;;;6.28;100.00;95083.72;5030122;28;20158;-64
2024/01/25 02:40:10;;;;;;;6.05;1.70;;;;;;;6.26;100.00;95079.75;5029760;28;20041;-65
2024/01/25 02:42:37;;;;;;;6.07;2.20;;;;;;;5.93;100.00;95081.78;5029987;28;20042;-64
2024/01/25 02:45:04;;;;;;;6.72;2.00;;;;;;;6.08;100.00;95085.66;5030130;28;20044;-65
2024/01/25 02:47:30;;;;;;;6.43;1.73;;;;;;;6.23;100.00;95083.22;5030011;28;20068;-65
2024/01/25 02:49:57;;;;;;;6.67;1.83;;;;;;;6.27;100.00;95081.34;5029971;28;20042;-64
2024/01/25 02:52:24;;;;;;;5.40;1.75;;;;;;;6.07;100.00;95075.88;5029543;28;20048;-64
2024/01/25 02:54:51;;;;;;;6.10;2.13;;;;;;;5.92;100.00;95074.00;5029458;28;20068;-64
2024/01/25 02:57:18;;;;;;;6.85;1.83;;;;;;;5.95;100.00;95062.41;5029563;28;20041;-64
2024/01/25 02:59:46;;;;;;;7.32;2.30;;;;;;;6.20;100.00;95062.91;5029602;28;20041;-65
2024/01/25 03:02:13;;;;;;;9.40;2.33;;;;;;;6.20;100.00;95060.97;5029605;28;20053;-64
2024/01/25 03:04:40;;;;;;;6.72;2.33;;;;;;;6.31;100.00;95063.13;5029467;28;20047;-64
2024/01/25 03:07:07;;;;;;;8.45;3.75;;;;;;;6.42;100.00;95061.41;5029514;28;20095;-66
2024/01/25 03:09:34;;;;;;;12.90;3.17;;;;;;;6.36;100.00;95057.38;5029339;28;20052;-64
2024/01/25 03:12:01;;;;;;;7.57;2.72;;;;;;;6.43;100.00;95054.78;5029702;28;20375;-64
2024/01/25 03:14:27;;;;;;;6.80;2.23;;;;;;;6.44;100.00;95045.47;5029714;28;20047;-65
2024/01/25 03:16:54;;;;;;;4.88;1.70;;;;;;;6.25;100.00;95045.47;5029371;28;20437;-64
2024/01/25 03:19:25;;;;;;;4.65;1.60;;;;;;;6.23;100.00;95056.72;5029532;28;20083;-64
2024/01/25 03:21:54;;;;;;;4.22;2.05;;;;;;;6.29;100.00;95054.50;5029235;28;20049;-64
2024/01/25 03:24:21;;;;;;;5.05;2.10;;;;;;;6.30;100.00;95065.06;5029390;28;20091;-64
2024/01/25 03:26:48;;;;;;;7.27;2.77;;;;;;;6.19;100.00;95062.09;5028833;28;20049;-64
2024/01/25 03:29:15;;;;;;;4.97;2.50;;;;;;;6.26;100.00;95057.94;5028892;28;20048;-64
2024/01/25 03:31:42;;;;;;;4.25;1.60;;;;;;;6.26;100.00;95066.13;5028570;28;20598;-64
2024/01/25 03:34:09;;;;;;;6.05;1.77;;;;;;;5.88;100.00;95068.47;5029021;28;20046;-64
2024/01/25 03:36:39;;;;;;;4.95;1.70;;;;;;;6.01;100.00;95060.97;5028270;28;20442;-65
2024/01/25 03:39:07;;;;;;;3.70;1.80;;;;;;;6.19;100.00;95070.28;5029017;28;20442;-66
2024/01/25 03:41:34;;;;;;;5.57;2.08;;;;;;;5.92;100.00;95074.00;5027398;28;20045;-65
2024/01/25 03:44:00;;;;;;;4.13;2.03;;;;;;;6.08;100.00;95072.03;5029302;28;20050;-65
2024/01/25 03:46:27;;;;;;;5.00;1.75;;;;;;;6.13;100.00;95071.72;5028896;28;20053;-64
2024/01/25 03:48:54;;;;;;;22.27;10.50;;;;;;;6.23;100.00;95075.03;5027334;28;20041;-64
2024/01/25 03:51:23;;;;;;;7.87;3.00;;;;;;;6.26;100.00;95079.75;5028912;28;20099;-64
2024/01/25 03:53:52;;;;;;;5.18;2.22;;;;;;;6.28;100.00;95089.19;5028274;28;20067;-64
2024/01/25 03:56:19;;;;;;;6.55;1.83;;;;;;;6.19;100.00;95075.75;5028952;28;20052;-64
2024/01/25 03:58:46;;;;;;;4.13;1.30;;;;;;;5.96;100.00;95083.84;5028296;28;20049;-64
2024/01/25 04:01:13;;;;;;;3.92;1.40;;;;;;;6.14;100.00;95081.50;5028495;28;20456;-67
2024/01/25 04:03:41;;;;;;;4.63;1.70;;;;;;;6.23;100.00;95081.28;5027811;28;20449;-64
2024/01/25 04:06:08;;;;;;;6.20;1.60;;;;;;;6.23;100.00;95092.16;5028686;28;20033;-65
2024/01/25 04:08:35;;;;;;;4.13;1.77;;;;;;;5.92;100.00;95079.44;5028537;28;20049;-64
2024/01/25 04:11:02;;;;;;;4.03;1.88;;;;;;;5.90;100.00;95089.91;5028699;28;20041;-66
2024/01/25 04:13:29;;;;;;;6.05;1.60;;;;;;;5.90;100.00;95093.41;5028500;28;20824;-64
2024/01/25 04:15:55;;;;;;;3.40;1.20;;;;;;;5.88;100.00;95097.66;5028127;28;20045;-65
2024/01/25 04:18:22;;;;;;;3.35;1.30;;;;;;;5.89;100.00;95102.72;5027884;28;20185;-66
2024/01/25 04:20:50;;;;;;;4.18;1.92;;;;;;;6.07;100.00;95096.91;5024544;28;20045;-64
2024/01/25 04:23:17;;;;;;;2.85;1.00;;;;;;;5.83;100.00;95103.38;5028504;28;20049;-65
2024/01/25 04:25:44;;;;;;;4.28;1.40;;;;;;;5.99;100.00;95099.47;5026730;28;20037;-64
2024/01/25 04:28:11;;;;;;;3.87;1.23;;;;;;;5.89;100.00;95101.94;5028464;28;20045;-64
2024/01/25 04:30:38;;;;;;;2.28;1.10;;;;;;;5.92;100.00;95099.31;5028134;28;20044;-64
2024/01/25 04:33:05;;;;;;;3.40;0.90;;;;;;;6.04;100.00;95106.59;5028515;28;20049;-65
2024/01/25 04:35:32;;;;;;;3.55;1.30;;;;;;;6.03;100.00;95096.81;5027954;28;20418;-65
2024/01/25 04:37:59;;;;;;;4.70;1.42;;;;;;;6.12;100.00;95093.91;5027410;28;20684;-65
2024/01/25 04:40:26;;;;;;;3.33;1.20;;;;;;;6.03;100.00;95104.22;5028361;28;20050;-64
2024/01/25 04:42:53;;;;;;;3.78;1.25;;;;;;;6.11;100.00;95106.72;5029868;28;20042;-64
2024/01/25 04:45:20;;;;;;;4.30;1.30;;;;;;;6.08;100.00;95109.41;5031971;28;20053;-64
2024/01/25 04:47:46;;;;;;;3.20;1.15;;;;;;;6.11;100.00;95106.72;5021776;28;20046;-65
2024/01/25 04:50:13;;;;;;;3.50;1.15;;;;;;;5.94;100.00;95107.91;5012259;28;20376;-65
2024/01/25 04:52:40;;;;;;;4.03;1.20;;;;;;;6.02;100.00;95118.97;5011707;28;20045;-66
2024/01/25 04:55:08;;;;;;;3.17;0.93;;;;;;;6.11;100.00;95116.84;5012293;28;20380;-65
2024/01/25 04:57:34;;;;;;;3.78;1.10;;;;;;;6.03;100.00;95115.13;5011872;28;20418;-64
2024/01/25 05:00:02;;;;;;;2.97;0.90;;;;;;;6.02;100.00;95118.97;5012357;28;20038;-65
2024/01/25 05:02:29;;;;;;;5.47;2.60;;;;;;;6.03;100.00;95129.53;5010369;28;20100;-64
2024/01/25 05:04:55;;;;;;;3.00;1.30;;;;;;;6.01;100.00;95126.38;5011945;28;20049;-66
2024/01/25 05:07:22;;;;;;;3.55;1.23;;;;;;;6.10;100.00;95128.91;5011544;28;20457;-64
2024/01/25 05:09:56;;;;;;;3.63;1.45;;;;;;;5.91;100.00;95129.63;5011717;28;20050;-65
2024/01/25 05:12:23;;;;;;;3.97;1.80;;;;;;;5.98;100.00;95129.81;5011694;28;20438;-64
2024/01/25 05:14:50;;;;;;;4.45;1.58;;;;;;;5.96;100.00;95121.22;5011551;28;20073;-65
2024/01/25 05:17:17;;;;;;;3.93;1.17;;;;;;;6.04;100.00;95116.69;5011372;28;20135;-66
2024/01/25 05:19:44;;;;;;;4.88;1.90;;;;;;;5.97;100.00;95117.31;5011265;28;20049;-66
2024/01/25 05:22:11;;;;;;;6.28;2.15;;;;;;;5.98;100.00;95114.25;5012017;28;20046;-66
2024/01/25 05:24:38;;;;;;;3.85;1.55;;;;;;;5.80;100.00;95122.00;5011075;28;20052;-64
2024/01/25 05:27:05;;;;;;;6.40;1.60;;;;;;;5.84;100.00;95127.53;5011857;28;20095;-64
2024/01/25 05:29:31;;;;;;;4.73;1.80;;;;;;;5.69;100.00;95129.13;5011720;28;20050;-64
2024/01/25 05:31:58;;;;;;;4.85;1.70;;;;;;;5.52;100.00;95127.59;5011192;28;21067;-65
2024/01/25 05:34:25;;;;;;;4.13;1.83;;;;;;;5.49;100.00;95133.72;5011105;28;20125;-65
2024/01/25 05:36:52;;;;;;;5.10;1.65;;;;;;;5.62;100.00;95144.53;5008588;28;20057;-64
2024/01/25 05:39:20;;;;;;;8.73;2.88;;;;;;;5.54;100.00;95141.63;5009890;28;20099;-63
2024/01/25 05:41:46;;;;;;;5.17;1.50;;;;;;;5.45;100.00;95140.22;5018093;28;20044;-64
2024/01/25 05:44:13;;;;;;;5.32;1.40;;;;;;;5.51;100.00;95136.88;5010353;28;20044;-64
2024/01/25 05:46:40;;;;;;;4.53;1.70;;;;;;;5.52;100.00;95146.66;5009596;28;20058;-65
2024/01/25 05:49:07;;;;;;;4.07;1.80;;;;;;;5.49;100.00;95147.34;5010187;28;20107;-64
2024/01/25 05:51:34;;;;;;;6.38;2.42;;;;;;;5.49;100.00;95155.50;5009429;28;20392;-64
2024/01/25 05:54:00;;;;;;;4.63;1.80;;;;;;;5.62;100.00;95161.66;5009098;28;20119;-63
2024/01/25 05:56:27;;;;;;;3.83;1.52;;;;;;;5.57;100.00;95154.56;5009996;28;20100;-64
2024/01/25 05:58:54;;;;;;;3.13;1.40;;;;;;;5.57;100.00;95161.91;5009347;28;20050;-65
2024/01/25 06:01:21;;;;;;;5.65;2.50;;;;;;;5.74;100.00;95163.50;5009627;28;20125;-64
2024/01/25 06:03:48;;;;;;;4.32;1.30;;;;;;;5.69;100.00;95161.03;5008970;28;21142;-63
2024/01/25 06:06:15;;;;;;;3.13;1.37;;;;;;;5.65;100.00;95155.50;5010178;28;20054;-63
2024/01/25 06:08:41;;;;;;;5.25;1.77;;;;;;;5.70;100.00;95154.44;5008713;28;20414;-63
2024/01/25 06:11:17;;;;;;;5.80;2.05;;;;;;;5.66;100.00;95167.19;5009547;28;20038;-64
2024/01/25 06:13:44;;;;;;;4.07;1.58;;;;;;;5.67;100.00;95169.53;5009449;28;20042;-64
2024/01/25 06:16:11;;;;;;;4.45;1.35;;;;;;;5.67;100.00;95171.47;5009688;28;20398;-63
2024/01/25 06:18:38;;;;;;;4.83;1.30;;;;;;;5.85;100.00;95161.78;5008848;28;20507;-66
2024/01/25 06:21:05;;;;;;;3.17;1.50;;;;;;;5.72;100.00;95163.06;5009802;28;20041;-65
2024/01/25 06:23:31;;;;;;;2.72;1.10;;;;;;;5.72;100.00;95166.56;5009196;28;20510;-65
2024/01/25 06:25:58;;;;;;;5.60;1.70;;;;;;;5.76;100.00;95172.09;5009446;28;20111;-66
2024/01/25 06:28:25;;;;;;;8.52;1.80;;;;;;;5.61;100.00;95170.97;5009767;28;20588;-65
2024/01/25 06:30:52;;;;;;;4.40;1.80;;;;;;;5.37;100.00;95177.38;5009683;28;20042;-65
2024/01/25 06:33:19;;;;;;;4.32;1.50;;;;;;;5.67;100.00;95176.94;5009187;28;20125;-65
2024/01/25 06:35:47;;;;;;;2.95;1.20;;;;;;;5.62;100.00;95180.72;4968284;28;1194081;-63
2024/01/25 06:38:13;;;;;;;3.67;1.40;;;;;;;5.69;100.00;95183.59;5009120;28;20040;-65
2024/01/25 06:40:40;;;;;;;3.78;1.50;;;;;;;5.64;100.00;95185.81;5009361;28;20556;-65
2024/01/25 06:43:07;;;;;;;3.85;1.75;;;;;;;5.64;100.00;95181.16;5010642;28;20058;-65
2024/01/25 06:45:33;;;;;;;5.75;2.88;;;;;;;5.86;100.00;95187.91;5009550;28;20041;-65
2024/01/25 06:48:01;;;;;;;6.28;2.35;;;;;;;5.76;100.00;95185.72;5009525;28;20055;-64
2024/01/25 06:50:28;;;;;;;5.50;1.57;;;;;;;5.67;100.00;95188.59;5009802;28;20123;-64
2024/01/25 06:52:55;;;;;;;3.10;1.30;;;;;;;5.60;100.00;95191.97;5009444;28;20041;-64
2024/01/25 06:55:22;;;;;;;3.13;1.60;;;;;;;5.84;100.00;95194.84;5009966;28;20073;-65
2024/01/25 06:57:49;;;;;;;7.40;3.40;;;;;;;5.88;100.00;95199.22;5009513;28;20071;-64
2024/01/25 07:00:16;;;;;;;11.00;5.70;;;;;;;5.84;100.00;95194.84;5008753;28;20042;-65
2024/01/25 07:02:44;;;;;;;7.93;3.87;;;;;;;5.74;100.00;95196.97;5009469;28;20050;-65
2024/01/25 07:05:12;;;;;;;4.82;2.35;;;;;;;5.74;100.00;95188.00;5009384;28;20042;-65
2024/01/25 07:07:39;;;;;;;8.02;3.53;;;;;;;5.86;100.00;95189.84;5009474;28;20057;-64
2024/01/25 07:10:07;;;;;;;6.03;2.90;;;;;;;5.99;100.00;95197.56;5009118;28;20037;-65
2024/01/25 07:12:34;;;;;;;11.35;4.30;;;;;;;6.04;100.00;95184.81;5009538;28;20041;-64
2024/01/25 07:15:01;;;;;;;3.87;2.20;;;;;;;5.91;100.00;95186.84;5010220;28;20068;-65
2024/01/25 07:17:28;;;;;;;5.88;2.85;;;;;;;5.87;100.00;95186.75;5009454;28;20050;-65
2024/01/25 07:19:55;;;;;;;5.38;2.42;;;;;;;5.87;100.00;95186.75;5009811;28;20497;-64
2024/01/25 07:22:22;;;;;;;6.00;2.47;;;;;;;6.04;100.00;95187.53;5010086;28;20054;-65
2024/01/25 07:24:49;;;;;;;5.40;2.10;;;;;;;6.07;100.00;95181.38;5009336;28;20046;-65
2024/01/25 07:27:16;;;;;;;6.77;3.17;;;;;;;5.97;100.00;95190.91;5010117;28;20047;-64
2024/01/25 07:29:45;;;;;;;8.18;3.13;;;;;;;5.67;100.00;95182.38;5009456;28;20050;-65
2024/01/25 07:32:12;;;;;;;11.85;4.80;;;;;;;5.79;100.00;95185.81;5009688;28;20038;-65
2024/01/25 07:34:39;;;;;;;3.78;1.70;;;;;;;5.50;100.00;95189.00;5008167;28;20057;-64
2024/01/25 07:37:06;;;;;;;5.05;2.13;;;;;;;5.16;100.00;95193.97;5009918;28;20125;-64
2024/01/25 07:39:33;;;;;;;4.13;1.70;;;;;;;5.50;100.00;95195.22;5009399;28;21262;-65
2024/01/25 07:42:00;;;;;;;4.72;2.25;;;;;;;5.63;100.00;95200.56;5009335;28;20107;-64
2024/01/25 07:44:26;;;;;;;8.73;2.40;;;;;;;5.69;100.00;95191.00;5009565;28;20099;-64
2024/01/25 07:46:53;;;;;;;4.93;2.15;;;;;;;5.71;100.00;95197.66;5008670;28;20458;-65
2024/01/25 07:49:20;;;;;;;7.03;2.63;;;;;;;5.55;100.00;95199.59;5009240;28;20042;-65
2024/01/25 07:51:47;;;;;;;5.37;1.90;;;;;;;5.47;100.00;95201.34;5009246;28;20064;-64
2024/01/25 07:54:14;;;;;;;5.40;2.00;;;;;;;5.25;100.00;95202.78;5009736;28;20073;-65
2024/01/25 07:56:41;;;;;;;5.05;1.52;;;;;;;5.39;100.00;95208.56;5009195;28;20054;-66
2024/01/25 07:59:08;;;;;;;6.53;1.70;;;;;;;5.46;100.00;95218.06;5009752;28;20050;-64
2024/01/25 08:01:35;;;;;;;6.97;2.42;;;;;;;5.51;100.00;95206.88;5007400;28;20049;-65
2024/01/25 08:04:03;;;;;;;5.37;1.90;;;;;;;5.74;100.00;95215.25;5009378;28;20501;-65
2024/01/25 08:06:30;;;;;;;7.70;1.40;;;;;;;5.49;100.00;95209.97;5009103;28;20076;-65
2024/01/25 08:08:57;;;;;;;4.80;1.98;;;;;;;5.56;100.00;95210.16;5009006;28;20041;-65
2024/01/25 08:11:25;;;;;;;5.15;1.40;;;;;;;5.76;100.00;95210.25;5039447;28;20049;-65
2024/01/25 08:13:52;;;;;;;4.93;1.30;;;;;;;5.69;100.00;95219.00;5044034;28;20045;-65
2024/01/25 08:16:19;;;;;;;3.13;1.17;;;;;;;5.79;100.00;95212.25;5029037;28;20065;-64
2024/01/25 08:18:47;;;;;;;3.80;1.10;;;;;;;5.93;100.00;95214.50;5028200;28;20041;-64
2024/01/25 08:21:15;;;;;;;4.50;1.70;;;;;;;5.93;100.00;95215.28;5028741;28;20479;-64
2024/01/25 08:23:42;;;;;;;3.92;1.83;;;;;;;5.97;100.00;95226.31;5028037;28;20071;-65
2024/01/25 08:26:09;;;;;;;7.28;2.45;;;;;;;6.12;100.00;95222.78;5028195;28;20046;-65
2024/01/25 08:28:36;;;;;;;6.77;2.67;;;;;;;6.12;100.00;95222.00;5027728;28;20047;-64
2024/01/25 08:31:03;;;;;;;7.72;2.50;;;;;;;6.08;100.00;95221.91;5028439;28;20056;-64
2024/01/25 08:33:30;;;;;;;6.85;2.10;;;;;;;6.11;100.00;95223.91;5028283;28;20042;-64
2024/01/25 08:35:57;;;;;;;6.03;1.35;;;;;;;6.23;100.00;95220.28;5028182;28;20044;-64
2024/01/25 08:38:23;;;;;;;5.75;1.60;;;;;;;5.99;100.00;95213.13;5027786;28;20083;-64
2024/01/25 08:40:50;;;;;;;6.27;1.70;;;;;;;6.18;100.00;95213.19;5028083;28;20402;-65
2024/01/25 08:43:17;;;;;;;4.88;1.65;;;;;;;6.48;100.00;95214.59;5028788;28;20045;-65
2024/01/25 08:45:45;;;;;;;5.38;2.15;;;;;;;6.60;100.00;95209.81;5028197;28;20872;-64
2024/01/25 08:48:13;;;;;;;7.65;1.85;;;;;;;6.59;100.00;95210.94;5028504;28;20516;-64
2024/01/25 08:50:40;;;;;;;4.78;1.83;;;;;;;6.39;100.00;95222.97;5028141;28;20068;-65
2024/01/25 08:53:07;;;;;;;5.00;2.13;;;;;;;6.19;100.00;95224.88;5028527;28;20037;-64
2024/01/25 08:55:34;;;;;;;7.60;2.42;;;;;;;5.88;100.00;95225.69;5027958;28;20050;-64
2024/01/25 08:58:00;;;;;;;4.65;2.70;;;;;;;5.74;100.00;95237.03;5028436;28;20461;-66
2024/01/25 09:00:28;;;;;;;4.78;2.00;;;;;;;5.60;100.00;95232.81;5027155;28;20068;-64
2024/01/25 09:02:54;;;;;;;6.07;2.40;;;;;;;5.93;100.00;95237.09;5028076;28;20058;-65
2024/01/25 09:05:21;;;;;;;6.70;2.67;;;;;;;6.10;100.00;95240.66;5028705;28;20042;-65
2024/01/25 09:07:50;;;;;;;7.43;3.22;;;;;;;5.91;100.00;95233.94;5027375;28;20114;-64
2024/01/25 09:10:18;;;;;;;5.65;2.70;;;;;;;6.28;100.00;95244.56;5028860;28;20041;-65
2024/01/25 09:12:45;;;;;;;5.00;1.92;;;;;;;5.72;100.00;95234.66;5027817;28;20506;-65
2024/01/25 09:15:12;;;;;;;7.20;2.22;;;;;;;5.74;100.00;95239.75;5028471;28;20042;-65
2024/01/25 09:17:38;;;;;;;5.03;2.00;;;;;;;5.60;100.00;95240.19;5027754;28;20055;-65
2024/01/25 09:20:07;;;;;;;6.97;1.95;;;;;;;5.83;100.00;95242.28;5028481;28;20410;-65
2024/01/25 09:22:34;;;;;;;5.22;2.05;;;;;;;6.03;100.00;95252.16;5027679;28;20041;-65
2024/01/25 09:25:01;;;;;;;5.65;1.70;;;;;;;5.60;100.00;95240.19;5028346;28;20052;-65
2024/01/25 09:27:28;;;;;;;5.07;1.70;;;;;;;5.80;100.00;95230.97;5029164;28;20053;-65
2024/01/25 09:29:55;;;;;;;6.27;2.03;;;;;;;5.80;100.00;95230.97;5032019;28;20046;-65
2024/01/25 09:32:21;;;;;;;8.70;2.40;;;;;;;6.29;100.00;95229.00;5031703;28;20106;-65
2024/01/25 09:34:48;;;;;;;6.78;2.00;;;;;;;6.38;100.00;95244.00;5031148;28;20799;-65
2024/01/25 09:37:17;;;;;;;6.30;2.22;;;;;;;6.18;100.00;95245.91;5030835;28;20406;-65
2024/01/25 09:39:44;;;;;;;9.68;2.53;;;;;;;5.90;100.00;95245.22;5031093;28;20056;-65
2024/01/25 09:42:12;;;;;;;9.53;2.93;;;;;;;5.66;100.00;95246.19;5031822;28;20049;-65
2024/01/25 09:44:41;;;;;;;6.63;2.72;;;;;;;5.87;100.00;95243.97;5017479;28;20106;-65
2024/01/25 09:47:08;;;;;;;9.30;3.00;;;;;;;6.28;100.00;95247.28;5030900;28;20414;-65
2024/01/25 09:49:34;;;;;;;8.57;2.40;;;;;;;6.69;100.00;95249.72;5031275;28;20055;-65
2024/01/25 09:52:03;;;;;;;7.35;2.50;;;;;;;7.72;100.00;95234.50;5031692;28;20045;-65
2024/01/25 09:54:34;;;;;;;5.20;2.00;;;;;;;8.56;100.00;95237.38;5031404;28;20038;-65
2024/01/25 09:57:05;;;;;;;6.03;2.10;;;;;;;9.48;100.00;95225.94;5030282;28;20678;-65
2024/01/25 09:59:32;;;;;;;5.68;2.60;;;;;;;10.70;100.00;95220.63;5031292;28;20054;-66
2024/01/25 10:02:01;;;;;;;7.00;3.00;;;;;;;10.67;100.00;95222.19;5030246;28;22567;-65
2024/01/25 10:04:28;;;;;;;5.18;2.65;;;;;;;10.70;100.00;95223.38;5030891;28;20042;-65
2024/01/25 10:06:58;;;;;;;4.47;2.00;;;;;;;13.53;100.00;95217.88;5029790;28;20039;-66
2024/01/25 10:09:26;;;;;;;4.03;1.52;;;;;;;12.09;100.00;95225.75;5029463;28;20041;-66
2024/01/25 10:11:53;;;;;;;4.32;1.70;;;;;;;12.37;100.00;95221.38;5027830;28;20049;-66
2024/01/25 10:14:40;;;;;;;5.57;2.05;;;;;;;10.56;100.00;95226.81;5030214;28;20046;-65
2024/01/25 10:17:07;;;;;;;4.38;2.10;;;;;;;10.42;100.00;95215.75;5030989;28;20052;-65
2024/01/25 10:19:34;;;;;;;6.00;1.80;;;;;;;10.66;100.00;95222.56;5030473;28;20469;-65
2024/01/25 10:22:06;;;;;;;6.78;2.38;;;;;;;9.00;100.00;95218.38;5031275;28;20038;-65
2024/01/25 10:24:33;;;;;;;5.85;1.85;;;;;;;9.33;100.00;95218.72;5031016;28;20056;-66
2024/01/25 10:27:00;;;;;;;5.05;1.95;;;;;;;8.71;100.00;95220.00;5030177;28;21664;-65
2024/01/25 10:29:27;;;;;;;5.88;2.53;;;;;;;8.51;100.00;95219.34;5031194;28;20048;-65
2024/01/25 10:31:55;;;;;;;6.93;2.20;;;;;;;8.83;100.00;95213.47;5012774;28;20053;-66
2024/01/25 10:34:24;;;;;;;4.57;1.80;;;;;;;12.64;100.00;95202.47;5030620;28;20049;-65
2024/01/25 10:36:52;;;;;;;5.45;2.10;;;;;;;13.57;100.00;95196.56;5030254;28;20065;-67
2024/01/25 10:39:21;;;;;;;4.00;1.50;;;;;;;13.33;100.00;95189.22;5029296;28;20061;-66
2024/01/25 10:41:50;;;;;;;4.05;1.65;;;;;;;13.06;100.00;95192.47;5030087;28;20041;-65
2024/01/25 10:44:19;;;;;;;4.40;1.63;;;;;;;12.99;100.00;95189.75;5030474;28;20048;-65
2024/01/25 10:46:49;;;;;;;3.33;1.58;;;;;;;12.17;100.00;95183.28;5029224;28;20148;-66
2024/01/25 10:49:17;;;;;;;4.57;1.80;;;;;;;11.35;100.00;95196.94;5030203;28;20047;-66
2024/01/25 10:51:45;;;;;;;4.30;1.45;;;;;;;11.17;100.00;95189.44;5016737;28;20118;-66
2024/01/25 10:54:14;;;;;;;3.08;1.30;;;;;;;10.91;100.00;95190.50;5011742;28;20482;-65
2024/01/25 10:56:42;;;;;;;3.13;1.00;;;;;;;10.43;100.00;95189.91;5027589;28;20052;-65
2024/01/25 10:59:10;;;;;;;2.90;1.20;;;;;;;10.86;100.00;95181.84;5029498;28;20053;-66
2024/01/25 11:01:37;;;;;;;4.32;1.70;;;;;;;9.73;100.00;95193.28;5029319;28;20041;-66
2024/01/25 11:04:17;;;;;;;4.15;1.80;;;;;;;9.17;100.00;95191.56;5030034;28;20087;-66
2024/01/25 11:06:46;;;;;;;5.28;2.33;;;;;;;9.96;100.00;95178.56;5029428;28;20503;-65
2024/01/25 11:09:19;;;;;;;6.27;1.90;;;;;;;9.70;100.00;95174.03;5029804;28;20098;-65
2024/01/25 11:11:49;;;;;;;3.03;1.20;;;;;;;9.45;100.00;95179.31;5027758;28;20049;-66
2024/01/25 11:14:16;;;;;;;3.38;1.80;;;;;;;9.08;100.00;95169.19;5030345;28;20049;-64
2024/01/25 11:16:47;;;;;;;4.82;2.00;;;;;;;9.34;100.00;95176.50;5029448;28;20041;-64
2024/01/25 11:19:19;;;;;;;5.50;2.58;;;;;;;10.14;100.00;95165.78;5030078;28;20041;-65
2024/01/25 11:21:48;;;;;;;5.77;2.50;;;;;;;10.62;100.00;95170.38;5029247;28;20057;-64
2024/01/25 11:24:17;;;;;;;6.32;3.83;;;;;;;10.54;100.00;95166.03;5030033;28;20037;-64
2024/01/25 11:26:46;;;;;;;5.70;3.50;;;;;;;10.54;100.00;95163.28;5029235;28;20045;-65
2024/01/25 11:29:16;;;;;;;5.20;3.15;;;;;;;10.64;100.00;95159.78;5029498;28;20044;-65
2024/01/25 11:31:44;;;;;;;3.67;1.80;;;;;;;9.83;100.00;95160.84;5029200;28;20049;-65